Nearby METAR Reports

 

K6B9 - Skaneateles, New York, USA
Distance from station: SE 7mi, 12km
Updated: Sat, 25-Sep-2021 7:55pm EDT
Mostly cloudy
Mostly cloudy
 Wind from calm
Wind: Calm
Temperature: 63°F , 17°C
Dew Point: 54°F , 12°C
Humidity: 73%
Barometer: 29.90 inHg , 1012.5 hPa
Clouds: Mostly cloudy
Visibility: 10 miles , 16 km
Cloud details: Mostly cloudy 6000 ft
2021/09/25 23:55 K6B9 252355Z AUTO 00000KT 10SM BKN060 17/12 A2990
KSYR - Syracuse, New York, USA
Distance from station: ENE 24mi, 38km
Updated: Sat, 25-Sep-2021 7:54pm EDT
Mostly cloudy
Mostly cloudy
 Wind from S
Wind: S 7 mph , 11 km/h
Temperature: 66°F , 19°C
Dew Point: 55°F , 13°C
Humidity: 68%
Barometer: 29.88 inHg , 1011.9 hPa
Clouds: Mostly cloudy
Visibility: 10 miles , 16 km
Cloud details: Few Clouds 8000 ft
Partly cloudy 18000 ft
Mostly cloudy 25000 ft
2021/09/25 23:54 KSYR 252354Z 18006KT 10SM FEW080 SCT180 BKN250 19/13 A2988 RMK AO2 SLP114 T01940133 10256 20194 53002
 
KFZY - Fulton, New York, USA
Distance from station: NNE 26mi, 41km
Updated: Sat, 25-Sep-2021 7:54pm EDT
Clear
Clear
 Wind from calm
Wind: Calm
Temperature: 61°F , 16°C
Dew Point: 55°F , 13°C
Humidity: 83%
Barometer: 29.87 inHg , 1011.5 hPa
Clouds: Clear
Visibility: 10 miles , 16 km
2021/09/25 23:54 KFZY 252354Z AUTO 00000KT 10SM CLR 16/13 A2987 RMK AO2 SLP115 T01560128 10233 20156 53001
KN03 - Cortland, New York, USA
Distance from station: SSE 32mi, 51km
Updated: Sat, 25-Sep-2021 11:35am EDT
NOT Current
Clear
Clear
 Wind from SW
Wind: SW 3 mph , 6 km/h
Temperature: 64°F , 18°C
Dew Point: 50°F , 10°C
Humidity: 60%
Barometer: 30.04 inHg , 1017.3 hPa
Clouds: Clear
Visibility: 10 miles , 16 km
2021/09/25 15:35 KN03 251535Z AUTO 23003KT 10SM CLR 18/10 A3004 RMK AO2
 
KSDC - Williamson/Sodus, New York, USA
Distance from station: WNW 34mi, 54km
Updated: Sat, 25-Sep-2021 7:55pm EDT
Overcast
Overcast
 Wind from WNW
Wind: WNW 5 mph , 7 km/h
Temperature: 63°F , 17°C
Dew Point: 54°F , 12°C
Humidity: 73%
Barometer: 29.91 inHg , 1012.9 hPa
Clouds: Overcast
Visibility: 10 miles , 16 km
Cloud details: Overcast 6500 ft
2021/09/25 23:55 KSDC 252355Z AUTO 29004KT 10SM OVC065 17/12 A2991 RMK AO2
KPEO - Penn Yan, New York, USA
Distance from station: SW 35mi, 57km
Updated: Sat, 25-Sep-2021 7:53pm EDT
Mostly cloudy
Mostly cloudy
 Wind from SW
Wind: SW 3 mph , 6 km/h
Temperature: 63°F , 17°C
Dew Point: 52°F , 11°C
Humidity: 68%
Barometer: 29.90 inHg , 1012.5 hPa
Clouds: Mostly cloudy
Visibility: 10 miles , 16 km
Cloud details: Mostly cloudy 6500 ft
2021/09/25 23:53 KPEO 252353Z AUTO 22003KT 10SM BKN065 17/11 A2990 RMK AO2 RAB2257E19 SLP124 P0000 60000 T01720111 10228 20167 53001
 
KITH - Ithaca/Tompkins, New York, USA
Distance from station: S 37mi, 59km
Updated: Sat, 25-Sep-2021 7:56pm EDT
Clear
Clear
 Wind from SSE
Wind: SSE 5 mph , 7 km/h
Temperature: 61°F , 16°C
Dew Point: 54°F , 12°C
Humidity: 77%
Barometer: 29.91 inHg , 1012.9 hPa
Clouds: Clear
Visibility: 10 miles , 16 km
2021/09/25 23:56 KITH 252356Z 15004KT 10SM CLR 16/12 A2991 RMK AO2 SLP131 T01560117 10228 20144 58000
KVGC - Hamilton Municip, New York, USA
Distance from station: E 50mi, 80km
Updated: Sat, 25-Sep-2021 7:55pm EDT
Partly cloudy
Partly cloudy
 Wind from WSW
Wind: WSW 3 mph , 6 km/h
Temperature: 57°F , 14°C
Dew Point: 52°F , 11°C
Humidity: 82%
Barometer: 29.91 inHg , 1012.9 hPa
Clouds: Partly cloudy
Visibility: 10 miles , 16 km
Cloud details: Partly cloudy 5000 ft
2021/09/25 23:55 KVGC 252355Z AUTO 24003KT 10SM SCT050 14/11 A2991 RMK AO2